Time;durP1;ratioP1;P1;durP2;ratioP2;P2;SDS_P1;SDS_P2;PMS_P1;PMS_P2;Temp;Humidity;BMP_temperature;BMP_pressure;BME280_temperature;BME280_humidity;BME280_pressure;Samples;Min_cycle;Max_cycle;Signal;HPM_P1;HPM_P2
2022/09/19 00:01:05;;;;;;;;;;;14.70;64.10;;;;;;5133888;28;19903;-73
2022/09/19 00:03:31;;;;;;;;;;;14.70;64.20;;;;;;5133985;28;19903;-73
2022/09/19 00:05:57;;;;;;;;;;;14.70;64.30;;;;;;5115801;28;19910;-73
2022/09/19 00:08:23;;;;;;;;;;;14.70;64.40;;;;;;5133944;28;19903;-73
2022/09/19 00:10:48;;;;;;;;;;;14.70;64.40;;;;;;5135077;27;19903;-73
2022/09/19 00:13:14;;;;;;;;;;;14.60;64.50;;;;;;5138003;27;19904;-73
2022/09/19 00:15:47;;;;;;;;;;;14.60;64.60;;;;;;5138002;27;19960;-73
2022/09/19 00:18:13;;;;;;;;;;;14.60;64.80;;;;;;5137852;27;19903;-73
2022/09/19 00:20:39;;;;;;;;;;;14.60;64.90;;;;;;5137993;27;19903;-73
2022/09/19 00:26:01;;;;;;;;;;;14.60;64.90;;;;;;5138258;27;20023;-73
2022/09/19 00:28:27;;;;;;;;;;;14.50;65.10;;;;;;5137825;27;19954;-73
2022/09/19 00:30:54;;;;;;;;;;;14.50;65.00;;;;;;5137586;27;19912;-73
2022/09/19 00:33:21;;;;;;;;;;;14.50;65.20;;;;;;5137718;27;19907;-73
2022/09/19 00:35:50;;;;;;;;;;;14.50;65.30;;;;;;5137524;27;19907;-73
2022/09/19 00:38:16;;;;;;;;;;;14.50;65.40;;;;;;5137636;27;19903;-73
2022/09/19 00:40:41;;;;;;;;;;;14.40;65.40;;;;;;5119166;27;20376;-73
2022/09/19 00:43:11;;;;;;;;;;;14.40;65.50;;;;;;5137592;27;19911;-73
2022/09/19 00:45:37;;;;;;;;;;;14.40;65.60;;;;;;5119060;27;19899;-73
2022/09/19 00:48:02;;;;;;;;;;;14.30;65.70;;;;;;5137534;27;19910;-72
2022/09/19 00:50:28;;;;;;;;;;;14.30;65.90;;;;;;5137470;27;19948;-73
2022/09/19 00:52:58;;;;;;;;;;;14.20;66.00;;;;;;5137417;27;19912;-72
2022/09/19 00:55:24;;;;;;;;;;;14.20;66.10;;;;;;5137360;27;19914;-72
2022/09/19 00:57:52;;;;;;;;;;;14.20;66.20;;;;;;5137237;27;19904;-72
2022/09/19 01:00:18;;;;;;;;;;;14.20;66.50;;;;;;5137107;27;19904;-71
2022/09/19 01:02:46;;;;;;;;;;;14.20;66.80;;;;;;5137129;27;19909;-70
2022/09/19 01:05:12;;;;;;;;;;;14.20;66.90;;;;;;5137076;27;19903;-70
2022/09/19 01:07:37;;;;;;;;;;;14.10;67.00;;;;;;5136995;27;19910;-70
2022/09/19 01:10:10;;;;;;;;;;;14.10;67.00;;;;;;5137000;27;19904;-70
2022/09/19 01:12:46;;;;;;;;;;;14.10;67.10;;;;;;5136987;27;20281;-70
2022/09/19 01:15:20;;;;;;;;;;;14.10;67.10;;;;;;5118385;27;19908;-70
2022/09/19 01:17:46;;;;;;;;;;;14.00;67.10;;;;;;5136829;27;19934;-70
2022/09/19 01:20:18;;;;;;;;;;;14.00;67.30;;;;;;5136767;27;19998;-69
2022/09/19 01:22:43;;;;;;;;;;;14.00;67.40;;;;;;5135408;27;19904;-69
2022/09/19 01:25:31;;;;;;;;;;;14.00;67.50;;;;;;5136713;27;19926;-69
2022/09/19 01:28:13;;;;;;;;;;;14.00;67.60;;;;;;5118295;27;19910;-69
2022/09/19 01:30:46;;;;;;;;;;;14.00;67.70;;;;;;5136305;27;19990;-68
2022/09/19 01:33:17;;;;;;;;;;;14.00;67.70;;;;;;5136541;27;20285;-69
2022/09/19 01:35:45;;;;;;;;;;;14.00;67.50;;;;;;5136650;27;19951;-69
2022/09/19 01:38:15;;;;;;;;;;;13.90;67.40;;;;;;5118039;27;19907;-69
2022/09/19 01:40:41;;;;;;;;;;;13.90;67.30;;;;;;5136390;27;19942;-69
2022/09/19 01:43:11;;;;;;;;;;;13.90;67.40;;;;;;5136359;27;20354;-69
2022/09/19 01:45:37;;;;;;;;;;;13.90;67.30;;;;;;5117901;27;19938;-69
2022/09/19 01:48:07;;;;;;;;;;;13.90;67.50;;;;;;5117769;27;19910;-69
2022/09/19 01:50:35;;;;;;;;;;;13.90;67.60;;;;;;5136190;27;19907;-69
2022/09/19 01:53:01;;;;;;;;;;;13.90;67.70;;;;;;5136061;27;19912;-69
2022/09/19 01:55:40;;;;;;;;;;;13.90;67.90;;;;;;5136060;27;19911;-69
2022/09/19 01:58:12;;;;;;;;;;;13.90;68.10;;;;;;5136115;27;19926;-69
2022/09/19 02:00:45;;;;;;;;;;;13.90;68.20;;;;;;5135915;27;19900;-69
2022/09/19 02:03:22;;;;;;;;;;;13.90;68.20;;;;;;5135980;27;19903;-69
2022/09/19 02:05:53;;;;;;;;;;;13.90;68.10;;;;;;5135980;27;20035;-69
2022/09/19 02:08:30;;;;;;;;;;;13.80;67.90;;;;;;5135844;27;20387;-70
2022/09/19 02:11:00;;;;;;;;;;;13.80;67.80;;;;;;5155221;27;20380;-69
2022/09/19 02:13:27;;;;;;;;;;;13.80;67.90;;;;;;5156452;27;19917;-69
2022/09/19 02:16:00;;;;;;;;;;;13.80;68.10;;;;;;5137758;27;19907;-70
2022/09/19 02:18:30;;;;;;;;;;;13.80;68.00;;;;;;5156379;27;19910;-70
2022/09/19 02:21:17;;;;;;;;;;;13.80;68.00;;;;;;5156356;27;20288;-70
2022/09/19 02:23:47;;;;;;;;;;;13.80;67.90;;;;;;5156378;27;20368;-69
2022/09/19 02:26:14;;;;;;;;;;;13.80;67.70;;;;;;5156239;27;19903;-70
2022/09/19 02:28:41;;;;;;;;;;;13.70;67.60;;;;;;5156142;27;19906;-70
2022/09/19 02:31:09;;;;;;;;;;;13.70;67.50;;;;;;5155838;27;19918;-70
2022/09/19 02:33:35;;;;;;;;;;;13.70;67.60;;;;;;5155733;27;19910;-69
2022/09/19 02:36:16;;;;;;;;;;;13.70;67.70;;;;;;5137288;27;19907;-69
2022/09/19 02:38:46;;;;;;;;;;;13.70;67.90;;;;;;5155932;27;19903;-70
2022/09/19 02:41:17;;;;;;;;;;;13.70;68.10;;;;;;5155909;27;19903;-70
2022/09/19 02:43:51;;;;;;;;;;;13.70;68.10;;;;;;5155876;27;19903;-70
2022/09/19 02:46:31;;;;;;;;;;;13.70;68.10;;;;;;5155886;27;19910;-70
2022/09/19 02:49:07;;;;;;;;;;;13.70;68.10;;;;;;5137266;27;20255;-69
2022/09/19 02:51:38;;;;;;;;;;;13.80;68.00;;;;;;5155741;27;20255;-70
2022/09/19 02:54:10;;;;;;;;;;;13.70;67.80;;;;;;5155626;27;19907;-70
2022/09/19 02:56:37;;;;;;;;;;;13.80;67.80;;;;;;5155598;27;19903;-69
2022/09/19 02:59:06;;;;;;;;;;;13.80;67.50;;;;;;5137048;27;20354;-69
2022/09/19 03:01:32;;;;;;;;;;;13.80;67.30;;;;;;5155392;27;20386;-69
2022/09/19 03:04:12;;;;;;;;;;;13.70;66.80;;;;;;5155442;27;20350;-70
2022/09/19 03:07:15;;;;;;;;;;;13.70;66.60;;;;;;5155485;27;19903;-70
2022/09/19 03:09:44;;;;;;;;;;;13.60;66.30;;;;;;5051360;28;19905;-70
2022/09/19 03:12:18;;;;;;;;;;;13.50;66.20;;;;;;5051344;28;19905;-70
2022/09/19 03:14:47;;;;;;;;;;;13.40;66.10;;;;;;5051191;28;20434;-70
2022/09/19 03:17:16;;;;;;;;;;;13.30;66.10;;;;;;5051140;28;19911;-69
2022/09/19 03:19:47;;;;;;;;;;;13.20;66.10;;;;;;5034354;28;19905;-69
2022/09/19 03:22:13;;;;;;;;;;;13.10;66.20;;;;;;5051108;28;19905;-69
2022/09/19 03:24:40;;;;;;;;;;;13.10;66.40;;;;;;5034390;28;19983;-69
2022/09/19 03:27:05;;;;;;;;;;;13.00;66.30;;;;;;5051095;28;19912;-69
2022/09/19 03:29:31;;;;;;;;;;;12.90;66.60;;;;;;5050976;28;19912;-70
2022/09/19 03:31:57;;;;;;;;;;;12.90;66.80;;;;;;5050530;28;20364;-69
2022/09/19 03:34:23;;;;;;;;;;;12.80;67.10;;;;;;5050771;28;20043;-69
2022/09/19 03:36:48;;;;;;;;;;;12.80;67.30;;;;;;5050921;28;19905;-69
2022/09/19 03:39:14;;;;;;;;;;;12.90;67.50;;;;;;5051791;27;19915;-70
2022/09/19 03:41:40;;;;;;;;;;;12.90;67.60;;;;;;5154766;27;19910;-70
2022/09/19 03:44:05;;;;;;;;;;;12.90;67.70;;;;;;5136209;27;19987;-69
2022/09/19 03:46:31;;;;;;;;;;;12.90;67.70;;;;;;5154006;27;19998;-69
2022/09/19 03:48:58;;;;;;;;;;;13.00;67.70;;;;;;5154713;27;19949;-69
2022/09/19 03:51:24;;;;;;;;;;;13.00;67.70;;;;;;5154755;27;20415;-69
2022/09/19 03:53:49;;;;;;;;;;;13.10;67.70;;;;;;5154655;27;19907;-69
2022/09/19 03:56:16;;;;;;;;;;;13.10;67.50;;;;;;5154468;27;20357;-70
2022/09/19 03:58:42;;;;;;;;;;;13.10;67.30;;;;;;5154560;27;20251;-69
2022/09/19 04:01:08;;;;;;;;;;;13.10;67.20;;;;;;5135988;27;19910;-69
2022/09/19 04:03:34;;;;;;;;;;;13.20;67.20;;;;;;5154438;27;19934;-70
2022/09/19 04:06:00;;;;;;;;;;;13.20;67.00;;;;;;5135791;27;19951;-70
2022/09/19 04:08:26;;;;;;;;;;;13.20;66.80;;;;;;5154452;27;19903;-69
2022/09/19 04:10:52;;;;;;;;;;;13.20;66.70;;;;;;5154545;27;20333;-70
2022/09/19 04:13:20;;;;;;;;;;;13.30;66.90;;;;;;5154506;27;20292;-69
2022/09/19 04:15:46;;;;;;;;;;;13.20;66.80;;;;;;5154444;27;19914;-69
2022/09/19 04:18:11;;;;;;;;;;;13.30;66.80;;;;;;5154354;27;19903;-69
2022/09/19 04:20:38;;;;;;;;;;;13.30;67.60;;;;;;5154477;27;20376;-69
2022/09/19 04:23:03;;;;;;;;;;;13.30;66.70;;;;;;5154456;27;19903;-69
2022/09/19 04:25:33;;;;;;;;;;;13.30;66.80;;;;;;5154372;27;19907;-69
2022/09/19 04:28:03;;;;;;;;;;;13.30;66.70;;;;;;5154390;27;20350;-70
2022/09/19 04:30:32;;;;;;;;;;;13.30;66.70;;;;;;5153950;27;19903;-69
2022/09/19 04:33:00;;;;;;;;;;;13.40;66.60;;;;;;5154147;27;19911;-69
2022/09/19 04:35:27;;;;;;;;;;;13.30;66.50;;;;;;5154212;27;19911;-70
2022/09/19 04:37:52;;;;;;;;;;;13.30;66.30;;;;;;5154234;27;19909;-69
2022/09/19 04:40:21;;;;;;;;;;;13.30;66.10;;;;;;5135645;27;20353;-69
2022/09/19 04:42:47;;;;;;;;;;;13.30;66.10;;;;;;5154155;27;19946;-69
2022/09/19 04:45:20;;;;;;;;;;;13.20;65.70;;;;;;5154164;27;19910;-69
2022/09/19 04:47:47;;;;;;;;;;;13.20;65.80;;;;;;5154101;27;19903;-69
2022/09/19 04:50:14;;;;;;;;;;;13.20;65.90;;;;;;5153981;27;19910;-69
2022/09/19 04:52:39;;;;;;;;;;;13.20;66.00;;;;;;5153960;27;19903;-69
2022/09/19 04:55:06;;;;;;;;;;;13.20;65.90;;;;;;5154029;27;20329;-69
2022/09/19 04:57:32;;;;;;;;;;;13.20;66.00;;;;;;5156230;27;19911;-69
2022/09/19 04:59:58;;;;;;;;;;;13.20;65.90;;;;;;5157802;27;19903;-70
2022/09/19 05:02:23;;;;;;;;;;;13.10;65.80;;;;;;5157855;27;19903;-70
2022/09/19 05:04:49;;;;;;;;;;;13.10;66.00;;;;;;5157490;27;20043;-69
2022/09/19 05:07:14;;;;;;;;;;;13.10;66.10;;;;;;5157565;27;20372;-69
2022/09/19 05:09:41;;;;;;;;;;;13.10;66.10;;;;;;5157702;27;19910;-69
2022/09/19 05:12:08;;;;;;;;;;;13.10;66.10;;;;;;5157647;27;19925;-69
2022/09/19 05:14:34;;;;;;;;;;;13.10;66.20;;;;;;5157535;27;19906;-70
2022/09/19 05:17:00;;;;;;;;;;;13.10;66.40;;;;;;5138738;27;19903;-70
2022/09/19 05:19:26;;;;;;;;;;;13.10;66.40;;;;;;5157548;27;19910;-69
2022/09/19 05:21:51;;;;;;;;;;;13.10;66.40;;;;;;5157442;27;19903;-69
2022/09/19 05:24:18;;;;;;;;;;;13.10;66.40;;;;;;5157364;27;19909;-69
2022/09/19 05:26:44;;;;;;;;;;;13.10;66.40;;;;;;5157204;27;19909;-69
2022/09/19 05:29:12;;;;;;;;;;;13.10;66.50;;;;;;5157369;27;19950;-69
2022/09/19 05:31:38;;;;;;;;;;;13.10;66.50;;;;;;5156810;27;19915;-69
2022/09/19 05:34:04;;;;;;;;;;;13.10;66.60;;;;;;5157080;27;19951;-69
2022/09/19 05:36:30;;;;;;;;;;;13.10;66.60;;;;;;5157050;27;19907;-69
2022/09/19 05:38:57;;;;;;;;;;;13.20;66.80;;;;;;5156959;27;20039;-69
2022/09/19 05:41:23;;;;;;;;;;;13.10;66.90;;;;;;5156886;27;19903;-70
2022/09/19 05:43:50;;;;;;;;;;;13.20;67.00;;;;;;5156697;27;19910;-69
2022/09/19 05:46:15;;;;;;;;;;;13.20;67.00;;;;;;5156790;27;19907;-69
2022/09/19 05:48:41;;;;;;;;;;;13.20;66.90;;;;;;5156741;27;19910;-69
2022/09/19 05:51:07;;;;;;;;;;;13.20;66.80;;;;;;5156615;27;19903;-69
2022/09/19 05:56:29;;;;;;;;;;;13.30;67.00;;;;;;5156624;27;20597;-69
2022/09/19 05:58:56;;;;;;;;;;;13.30;67.10;;;;;;5156890;27;19971;-69
2022/09/19 06:01:22;;;;;;;;;;;13.30;67.10;;;;;;5148884;27;19914;-69
2022/09/19 06:03:48;;;;;;;;;;;13.30;66.90;;;;;;5144427;27;20006;-69
2022/09/19 06:06:14;;;;;;;;;;;13.30;67.00;;;;;;5136220;27;19911;-69
2022/09/19 06:08:42;;;;;;;;;;;13.30;67.10;;;;;;5155476;27;19998;-69
2022/09/19 06:11:08;;;;;;;;;;;13.30;67.10;;;;;;5156223;27;19959;-69
2022/09/19 06:16:17;;;;;;;;;;;13.30;67.10;;;;;;5147133;27;19963;-69
2022/09/19 06:18:43;;;;;;;;;;;13.30;67.10;;;;;;5135243;27;19911;-69
2022/09/19 06:21:09;;;;;;;;;;;13.30;67.20;;;;;;5135403;27;19917;-69
2022/09/19 06:23:35;;;;;;;;;;;13.20;67.10;;;;;;5135551;27;19903;-69
2022/09/19 06:26:00;;;;;;;;;;;13.20;67.00;;;;;;5135298;27;19903;-69
2022/09/19 06:28:26;;;;;;;;;;;13.20;67.20;;;;;;5135263;27;19949;-69
2022/09/19 06:30:51;;;;;;;;;;;13.20;67.20;;;;;;5145663;27;20401;-70
2022/09/19 06:33:18;;;;;;;;;;;13.10;67.20;;;;;;5155932;27;19907;-69
2022/09/19 06:35:43;;;;;;;;;;;13.20;67.60;;;;;;5155709;27;19907;-69
2022/09/19 06:38:09;;;;;;;;;;;13.10;67.90;;;;;;5155085;27;19913;-69
2022/09/19 06:40:38;;;;;;;;;;;13.20;68.40;;;;;;5134781;27;20433;-69
2022/09/19 06:43:05;;;;;;;;;;;13.20;68.60;;;;;;5134988;27;19905;-69
2022/09/19 06:45:31;;;;;;;;;;;13.10;68.60;;;;;;5135032;27;19910;-69
2022/09/19 06:47:58;;;;;;;;;;;13.20;68.90;;;;;;5135053;27;19910;-70
2022/09/19 06:50:24;;;;;;;;;;;13.10;68.90;;;;;;5141878;27;19952;-70
2022/09/19 06:52:49;;;;;;;;;;;13.10;69.10;;;;;;5134874;27;19907;-70
2022/09/19 06:55:15;;;;;;;;;;;13.10;69.20;;;;;;5134848;27;19998;-70
2022/09/19 06:57:41;;;;;;;;;;;13.10;69.00;;;;;;5116215;27;19903;-70
2022/09/19 07:00:07;;;;;;;;;;;13.10;69.10;;;;;;5135431;27;19914;-70
2022/09/19 07:02:32;;;;;;;;;;;13.10;69.20;;;;;;5134615;27;20285;-70
2022/09/19 07:04:58;;;;;;;;;;;13.10;69.30;;;;;;5151345;27;19907;-70
2022/09/19 07:07:23;;;;;;;;;;;13.10;69.50;;;;;;5134691;27;20305;-70
2022/09/19 07:09:49;;;;;;;;;;;13.10;69.60;;;;;;5134505;27;19908;-70
2022/09/19 07:12:15;;;;;;;;;;;13.10;69.80;;;;;;5134496;27;20362;-70
2022/09/19 07:14:41;;;;;;;;;;;13.10;69.90;;;;;;5134296;27;20324;-70
2022/09/19 07:17:15;;;;;;;;;;;13.10;69.90;;;;;;5134593;27;19904;-70
2022/09/19 07:19:41;;;;;;;;;;;13.10;69.70;;;;;;5134274;27;20362;-70
2022/09/19 07:22:06;;;;;;;;;;;13.10;69.70;;;;;;5133878;27;19938;-70
2022/09/19 07:24:32;;;;;;;;;;;13.10;69.70;;;;;;5134230;27;19954;-70
2022/09/19 07:26:58;;;;;;;;;;;13.10;70.00;;;;;;5134300;27;19910;-70
2022/09/19 07:29:23;;;;;;;;;;;13.20;70.50;;;;;;5134132;27;19903;-70
2022/09/19 07:31:49;;;;;;;;;;;13.30;70.80;;;;;;5142713;27;20138;-70
2022/09/19 07:34:15;;;;;;;;;;;13.40;71.10;;;;;;5133989;27;19954;-70
2022/09/19 07:36:40;;;;;;;;;;;13.40;71.00;;;;;;5115787;27;20283;-70
2022/09/19 07:39:06;;;;;;;;;;;13.40;71.10;;;;;;5133866;27;19899;-70
2022/09/19 07:41:31;;;;;;;;;;;13.50;71.20;;;;;;5115536;28;20006;-70
2022/09/19 07:43:57;;;;;;;;;;;13.50;71.00;;;;;;5133906;27;19906;-70
2022/09/19 07:46:25;;;;;;;;;;;13.60;71.00;;;;;;5136093;27;19930;-70
2022/09/19 07:48:53;;;;;;;;;;;13.60;71.10;;;;;;5153169;27;19913;-70
2022/09/19 07:51:20;;;;;;;;;;;13.50;71.00;;;;;;5136093;27;19903;-70
2022/09/19 07:53:46;;;;;;;;;;;13.50;70.80;;;;;;5154562;27;19910;-70
2022/09/19 07:56:11;;;;;;;;;;;13.40;71.00;;;;;;5154527;27;20332;-70
2022/09/19 07:58:37;;;;;;;;;;;13.40;70.90;;;;;;5154975;27;20318;-71
2022/09/19 08:01:03;;;;;;;;;;;13.40;71.20;;;;;;5147610;27;19948;-70
2022/09/19 08:03:28;;;;;;;;;;;13.50;71.60;;;;;;5134001;28;19939;-71
2022/09/19 08:05:54;;;;;;;;;;;13.50;71.60;;;;;;5115568;28;19943;-71
2022/09/19 08:08:21;;;;;;;;;;;13.60;71.70;;;;;;5115540;28;19903;-71
2022/09/19 08:10:47;;;;;;;;;;;13.60;71.70;;;;;;5134169;28;19993;-70
2022/09/19 08:13:13;;;;;;;;;;;13.70;71.70;;;;;;5133854;28;19927;-71
2022/09/19 08:15:39;;;;;;;;;;;13.80;72.00;;;;;;5115443;28;19914;-71
2022/09/19 08:18:15;;;;;;;;;;;13.90;71.70;;;;;;5133706;28;19903;-71
2022/09/19 08:20:42;;;;;;;;;;;14.00;71.90;;;;;;5115439;28;19910;-71
2022/09/19 08:23:12;;;;;;;;;;;14.10;71.90;;;;;;5133745;28;19997;-71
2022/09/19 08:25:43;;;;;;;;;;;14.20;72.00;;;;;;5133663;28;19910;-71
2022/09/19 08:28:09;;;;;;;;;;;14.20;71.70;;;;;;5147887;27;20321;-71
2022/09/19 08:30:35;;;;;;;;;;;14.30;71.50;;;;;;5154406;27;19907;-71
2022/09/19 08:33:02;;;;;;;;;;;14.40;71.90;;;;;;5157379;27;20292;-71
2022/09/19 08:35:29;;;;;;;;;;;14.50;72.00;;;;;;5157975;27;19918;-70
2022/09/19 08:37:56;;;;;;;;;;;14.60;71.70;;;;;;5139816;27;19903;-71
2022/09/19 08:40:30;;;;;;;;;;;14.70;71.60;;;;;;5158350;27;19909;-71
2022/09/19 08:42:58;;;;;;;;;;;14.80;71.60;;;;;;5137601;27;19907;-71
2022/09/19 08:45:33;;;;;;;;;;;14.90;71.30;;;;;;5139126;27;19907;-71
2022/09/19 08:48:01;;;;;;;;;;;15.00;71.30;;;;;;5158821;27;19910;-71
2022/09/19 08:50:29;;;;;;;;;;;15.10;70.50;;;;;;5158047;27;19910;-71
2022/09/19 08:52:57;;;;;;;;;;;15.10;70.20;;;;;;5126416;27;19907;-71
2022/09/19 08:55:24;;;;;;;;;;;15.20;69.80;;;;;;5137212;27;20006;-71
2022/09/19 08:57:53;;;;;;;;;;;15.20;69.40;;;;;;5137132;27;20361;-71
2022/09/19 09:00:20;;;;;;;;;;;15.20;69.10;;;;;;5137075;27;19904;-71
2022/09/19 09:02:51;;;;;;;;;;;15.10;68.80;;;;;;5118715;27;19903;-71
2022/09/19 09:05:37;;;;;;;;;;;15.20;69.10;;;;;;5137109;27;19903;-71
2022/09/19 09:08:15;;;;;;;;;;;15.10;68.60;;;;;;5128930;27;19907;-71
2022/09/19 09:10:53;;;;;;;;;;;15.10;68.70;;;;;;5139167;27;20002;-71
2022/09/19 09:13:37;;;;;;;;;;;15.10;69.10;;;;;;5157687;27;19910;-71
2022/09/19 09:16:13;;;;;;;;;;;15.10;69.20;;;;;;5157421;27;20011;-71
2022/09/19 09:18:58;;;;;;;;;;;15.10;69.10;;;;;;5138927;27;19903;-71
2022/09/19 09:21:49;;;;;;;;;;;15.20;69.20;;;;;;5136803;27;19994;-71
2022/09/19 09:24:26;;;;;;;;;;;15.20;69.50;;;;;;5136712;27;19908;-71
2022/09/19 09:26:54;;;;;;;;;;;15.20;69.10;;;;;;5136677;27;20270;-71
2022/09/19 09:29:25;;;;;;;;;;;15.30;68.80;;;;;;5136623;27;19948;-71
2022/09/19 09:32:15;;;;;;;;;;;15.20;68.80;;;;;;5136300;27;19980;-71
2022/09/19 09:35:00;;;;;;;;;;;15.20;68.50;;;;;;5136258;27;20274;-71
2022/09/19 09:37:36;;;;;;;;;;;15.20;68.50;;;;;;5136526;27;19956;-71
2022/09/19 09:41:44;;;;;;;;;;;15.20;68.60;;;;;;5117784;27;19907;-71
2022/09/19 09:43:05;;;;;;;;;;;15.20;68.00;;;;;;5135434;27;19903;-71
2022/09/19 09:45:45;;;;;;;;;;;15.20;68.40;;;;;;5136233;27;19910;-71
2022/09/19 09:48:10;;;;;;;;;;;15.20;68.20;;;;;;5136153;27;19938;-71
2022/09/19 09:50:46;;;;;;;;;;;15.10;68.10;;;;;;5117739;27;19938;-71
2022/09/19 09:53:21;;;;;;;;;;;15.10;67.80;;;;;;5136215;27;20419;-71
2022/09/19 09:56:17;;;;;;;;;;;15.00;67.90;;;;;;5136100;27;19962;-71
2022/09/19 09:58:58;;;;;;;;;;;15.00;67.90;;;;;;5135926;27;19910;-71
2022/09/19 10:04:35;;;;;;;;;;;14.90;68.10;;;;;;5136072;27;20380;-71
2022/09/19 10:07:20;;;;;;;;;;;14.80;67.80;;;;;;5135962;27;20306;-71
2022/09/19 10:09:49;;;;;;;;;;;14.80;68.10;;;;;;5135224;27;19903;-71
2022/09/19 10:12:23;;;;;;;;;;;14.90;68.40;;;;;;5135680;27;19943;-71
2022/09/19 10:14:52;;;;;;;;;;;14.90;68.40;;;;;;5135690;27;19918;-71
2022/09/19 10:17:19;;;;;;;;;;;14.90;68.50;;;;;;5135612;27;19910;-71
2022/09/19 10:19:50;;;;;;;;;;;14.90;68.50;;;;;;5136232;27;19907;-72
2022/09/19 10:22:16;;;;;;;;;;;14.90;68.50;;;;;;5135845;27;19907;-71
2022/09/19 10:24:54;;;;;;;;;;;15.00;68.60;;;;;;5155886;27;19910;-71
2022/09/19 10:27:27;;;;;;;;;;;15.10;68.50;;;;;;5147676;27;19903;-72
2022/09/19 10:30:04;;;;;;;;;;;15.20;68.30;;;;;;5137142;27;19975;-71
2022/09/19 10:32:37;;;;;;;;;;;15.30;68.10;;;;;;5155088;27;20389;-71
2022/09/19 10:35:32;;;;;;;;;;;15.40;67.90;;;;;;5155791;27;19959;-71
2022/09/19 10:37:58;;;;;;;;;;;15.50;68.10;;;;;;5133037;27;19914;-71
2022/09/19 10:40:25;;;;;;;;;;;15.70;67.90;;;;;;5155994;27;19997;-71
2022/09/19 10:42:53;;;;;;;;;;;15.70;67.20;;;;;;5137394;27;19924;-71
2022/09/19 10:45:25;;;;;;;;;;;15.90;67.40;;;;;;5155837;27;19903;-71
2022/09/19 10:48:00;;;;;;;;;;;16.00;67.80;;;;;;5155868;27;20369;-71
2022/09/19 10:50:26;;;;;;;;;;;16.10;67.10;;;;;;5155679;27;19907;-71
2022/09/19 10:52:59;;;;;;;;;;;16.20;67.20;;;;;;5155616;27;19910;-71
2022/09/19 10:55:25;;;;;;;;;;;16.30;67.50;;;;;;5155461;27;19942;-71
2022/09/19 10:57:59;;;;;;;;;;;16.40;65.90;;;;;;5140011;27;20366;-71
2022/09/19 11:00:30;;;;;;;;;;;16.50;65.80;;;;;;5116565;27;19903;-71
2022/09/19 11:03:00;;;;;;;;;;;16.60;65.20;;;;;;5134934;27;19959;-70
2022/09/19 11:05:28;;;;;;;;;;;16.70;65.10;;;;;;5134767;27;19904;-71
2022/09/19 11:07:58;;;;;;;;;;;16.70;64.60;;;;;;5134754;27;19941;-71
2022/09/19 11:10:33;;;;;;;;;;;16.70;64.40;;;;;;5134744;27;19911;-71
2022/09/19 11:13:06;;;;;;;;;;;16.70;64.30;;;;;;5134732;27;20009;-71
2022/09/19 11:15:34;;;;;;;;;;;16.70;64.00;;;;;;5134565;27;19908;-71
2022/09/19 11:18:07;;;;;;;;;;;16.60;64.10;;;;;;5134542;27;19903;-71
2022/09/19 11:20:33;;;;;;;;;;;16.60;64.30;;;;;;5134658;27;20318;-71
2022/09/19 11:23:09;;;;;;;;;;;16.50;64.20;;;;;;5134515;27;19990;-71
2022/09/19 11:25:41;;;;;;;;;;;16.50;64.10;;;;;;5134426;27;19904;-71
2022/09/19 11:28:15;;;;;;;;;;;16.40;64.10;;;;;;5134450;27;19904;-71
2022/09/19 11:31:05;;;;;;;;;;;16.40;64.30;;;;;;5134190;27;19903;-71
2022/09/19 11:33:38;;;;;;;;;;;16.40;64.10;;;;;;5134179;27;20277;-70
2022/09/19 11:36:19;;;;;;;;;;;16.30;63.90;;;;;;5115739;27;19907;-70
2022/09/19 11:38:45;;;;;;;;;;;16.30;64.30;;;;;;5134272;27;19903;-71
2022/09/19 11:41:13;;;;;;;;;;;16.30;64.60;;;;;;5133992;27;19926;-71
2022/09/19 11:43:59;;;;;;;;;;;16.20;64.80;;;;;;5134194;27;19908;-71
2022/09/19 11:46:43;;;;;;;;;;;16.20;65.40;;;;;;5134104;27;20370;-71
2022/09/19 11:49:27;;;;;;;;;;;16.10;65.70;;;;;;5133882;27;19904;-71
2022/09/19 11:51:56;;;;;;;;;;;16.00;66.10;;;;;;5134191;27;20280;-71
2022/09/19 11:54:24;;;;;;;;;;;16.00;66.70;;;;;;5134046;27;19976;-71
2022/09/19 11:57:10;;;;;;;;;;;16.00;66.90;;;;;;5134025;27;19951;-71
2022/09/19 11:59:36;;;;;;;;;;;16.00;67.00;;;;;;5133508;28;20274;-71
2022/09/19 12:02:13;;;;;;;;;;;16.00;66.90;;;;;;5133996;28;19903;-71
2022/09/19 12:04:58;;;;;;;;;;;16.00;66.70;;;;;;5115267;28;19952;-71
2022/09/19 12:07:25;;;;;;;;;;;16.00;66.90;;;;;;5117733;27;19903;-71
2022/09/19 12:10:09;;;;;;;;;;;15.90;66.80;;;;;;5138218;27;19903;-70
2022/09/19 12:12:36;;;;;;;;;;;15.90;66.80;;;;;;5138118;27;19911;-71
2022/09/19 12:15:22;;;;;;;;;;;15.90;66.80;;;;;;5138007;27;19914;-70
2022/09/19 12:18:07;;;;;;;;;;;15.90;66.90;;;;;;5137927;27;19903;-71
2022/09/19 12:20:44;;;;;;;;;;;15.80;67.10;;;;;;5138022;27;20364;-70
2022/09/19 12:25:58;;;;;;;;;;;15.70;68.10;;;;;;5137981;27;19948;-70
2022/09/19 12:28:29;;;;;;;;;;;15.70;67.50;;;;;;5137802;27;19903;-71
2022/09/19 12:30:58;;;;;;;;;;;15.70;67.90;;;;;;5119196;27;19903;-71
2022/09/19 12:33:24;;;;;;;;;;;15.70;68.30;;;;;;5119372;27;20303;-71
2022/09/19 12:35:57;;;;;;;;;;;15.70;68.30;;;;;;5137612;27;20005;-71
2022/09/19 12:38:25;;;;;;;;;;;15.70;68.40;;;;;;5137810;27;20321;-71
2022/09/19 12:41:09;;;;;;;;;;;15.70;68.50;;;;;;5137644;27;20319;-71
2022/09/19 12:43:38;;;;;;;;;;;15.80;68.60;;;;;;5119151;27;19954;-71
2022/09/19 12:46:23;;;;;;;;;;;15.80;68.50;;;;;;5137457;27;19903;-71
2022/09/19 12:48:55;;;;;;;;;;;15.90;68.40;;;;;;5137405;27;19929;-71
2022/09/19 12:51:24;;;;;;;;;;;15.90;68.00;;;;;;5137478;27;19908;-71
2022/09/19 12:53:56;;;;;;;;;;;16.00;68.20;;;;;;5137282;27;19904;-71
2022/09/19 12:56:26;;;;;;;;;;;16.10;67.90;;;;;;5137311;27;19930;-71
2022/09/19 12:58:53;;;;;;;;;;;16.10;67.90;;;;;;5137238;27;19917;-71
2022/09/19 13:01:25;;;;;;;;;;;16.20;67.80;;;;;;5137194;27;19903;-71
2022/09/19 13:03:55;;;;;;;;;;;16.20;67.80;;;;;;5137174;27;20297;-71
2022/09/19 13:06:24;;;;;;;;;;;16.30;67.90;;;;;;5137212;27;19911;-71
2022/09/19 13:08:50;;;;;;;;;;;16.30;68.10;;;;;;5137168;27;19903;-71
2022/09/19 13:11:27;;;;;;;;;;;16.40;68.10;;;;;;5137089;27;19910;-71
2022/09/19 13:13:56;;;;;;;;;;;16.50;68.20;;;;;;5137103;27;19904;-71
2022/09/19 13:16:28;;;;;;;;;;;16.60;68.30;;;;;;5136706;27;19907;-71
2022/09/19 13:24:35;;;;;;;;;;;16.90;67.60;;;;;;5136972;27;20430;-71
2022/09/19 13:27:02;;;;;;;;;;;16.90;67.10;;;;;;5136636;27;19959;-71
2022/09/19 13:29:28;;;;;;;;;;;16.90;66.70;;;;;;5136552;27;19903;-71
2022/09/19 13:31:56;;;;;;;;;;;16.90;66.60;;;;;;5136195;27;20286;-71
2022/09/19 13:34:39;;;;;;;;;;;16.90;66.30;;;;;;5136420;27;19910;-71
2022/09/19 13:37:23;;;;;;;;;;;16.80;66.00;;;;;;5136331;27;19994;-70
2022/09/19 13:39:53;;;;;;;;;;;16.90;66.20;;;;;;5118189;27;20381;-71
2022/09/19 13:42:32;;;;;;;;;;;16.80;66.40;;;;;;5136412;27;20047;-70
2022/09/19 13:45:05;;;;;;;;;;;16.80;66.40;;;;;;5117960;27;19904;-71
2022/09/19 13:47:31;;;;;;;;;;;16.80;66.80;;;;;;5117873;27;19903;-71
2022/09/19 13:50:20;;;;;;;;;;;16.90;67.60;;;;;;5117665;27;19904;-71
2022/09/19 13:53:01;;;;;;;;;;;17.00;67.00;;;;;;5125051;27;19926;-71
2022/09/19 13:55:41;;;;;;;;;;;17.00;66.90;;;;;;5117641;27;19914;-71
2022/09/19 13:58:25;;;;;;;;;;;17.10;67.10;;;;;;5117716;27;19904;-71
2022/09/19 14:01:13;;;;;;;;;;;17.20;66.90;;;;;;5117961;27;19904;-71
2022/09/19 14:03:41;;;;;;;;;;;17.30;67.00;;;;;;5117501;27;19909;-71
2022/09/19 14:06:33;;;;;;;;;;;17.40;67.10;;;;;;5135934;27;19903;-71
2022/09/19 14:09:18;;;;;;;;;;;17.40;67.00;;;;;;5131756;27;19907;-71
2022/09/19 14:11:44;;;;;;;;;;;17.50;66.70;;;;;;5117419;27;19903;-71
2022/09/19 14:14:28;;;;;;;;;;;17.50;66.90;;;;;;5135712;27;19911;-71
2022/09/19 14:17:12;;;;;;;;;;;17.60;67.20;;;;;;5117301;27;19998;-71
2022/09/19 14:19:59;;;;;;;;;;;17.70;67.30;;;;;;5135511;27;19903;-71
2022/09/19 14:22:37;;;;;;;;;;;17.80;67.40;;;;;;5117224;27;19934;-71
2022/09/19 14:25:20;;;;;;;;;;;18.00;67.20;;;;;;5117234;27;19943;-71
2022/09/19 14:28:04;;;;;;;;;;;18.00;66.50;;;;;;5135553;27;19903;-71
2022/09/19 14:30:43;;;;;;;;;;;18.00;66.00;;;;;;5134645;27;19915;-71
2022/09/19 14:33:49;;;;;;;;;;;18.00;65.60;;;;;;5135436;27;19916;-71
2022/09/19 14:36:40;;;;;;;;;;;18.00;65.40;;;;;;5035178;28;19913;-71
2022/09/19 14:39:19;;;;;;;;;;;17.90;65.00;;;;;;5035285;28;19904;-71
2022/09/19 14:41:56;;;;;;;;;;;17.90;65.00;;;;;;5095586;27;20267;-71
2022/09/19 14:44:41;;;;;;;;;;;17.80;65.20;;;;;;5116774;27;19963;-71
2022/09/19 14:47:10;;;;;;;;;;;17.80;65.50;;;;;;5135085;27;19998;-71
2022/09/19 14:49:42;;;;;;;;;;;17.90;66.90;;;;;;5135008;27;19910;-71
2022/09/19 14:52:19;;;;;;;;;;;18.00;68.40;;;;;;5134947;27;19903;-71
2022/09/19 14:54:47;;;;;;;;;;;18.20;68.50;;;;;;5116541;27;19976;-71
2022/09/19 14:57:15;;;;;;;;;;;18.50;68.00;;;;;;5134909;27;19904;-71